Terminal Aerodrome Forecast
Issued by NWS

Home | Current Version | Previous Version | Text Only | Print | Product List | Glossary On
Versions: 1 2 3 4 5 6 7 8 9
250
FTUS45 KPSR 230520
TAFIPL
TAF
KIPL 230520Z 2306/2406 25009KT P6SM SCT250
     FM231400 VRB04KT P6SM SCT250
     FM231900 24008KT P6SM BKN250
     FM232200 26015G24KT P6SM BKN250=

USA.gov is the U.S. government's official web portal to all federal, state and local government web resources and services.